createdAt,value
2022-09-28T00:09:52.384Z,25.97
2022-09-28T00:24:54.264Z,25.08
2022-09-28T00:39:56.038Z,25.08
2022-09-28T00:55:01.480Z,26.10
2022-09-28T01:10:04.540Z,25.63
2022-09-28T01:25:39.906Z,25.23
2022-09-28T01:55:48.298Z,29.60
2022-09-28T02:11:01.578Z,28.05
2022-09-28T02:26:08.999Z,29.40
2022-09-28T02:41:48.120Z,26.75
2022-09-28T02:56:56.401Z,25.30
2022-09-28T03:12:06.800Z,26.45
2022-09-28T03:27:08.681Z,28.02
2022-09-28T03:42:10.463Z,27.08
2022-09-28T03:57:12.328Z,25.30
2022-09-28T04:12:14.414Z,25.80
2022-09-28T04:27:34.686Z,25.52
2022-09-28T04:42:36.958Z,26.23
2022-09-28T04:57:38.940Z,25.20
2022-09-28T05:12:40.780Z,27.63
2022-09-28T05:27:42.552Z,25.73
2022-09-28T05:42:44.799Z,26.38
2022-09-28T05:57:46.677Z,24.98
2022-09-28T06:12:52.689Z,23.48
2022-09-28T06:28:03.002Z,23.23
2022-09-28T06:43:15.310Z,20.25
2022-09-28T06:58:19.870Z,20.48
2022-09-28T07:13:46.763Z,21.80
2022-09-28T07:28:45.043Z,22.35
2022-09-28T07:43:46.872Z,25.10
2022-09-28T07:58:49.981Z,25.85
2022-09-28T08:13:55.561Z,28.13
2022-09-28T08:28:57.620Z,31.55
2022-09-28T08:44:10.471Z,23.85
2022-09-28T08:59:17.335Z,22.55
2022-09-28T09:14:56.748Z,20.95
2022-09-28T09:30:22.107Z,15.77
2022-09-28T09:45:49.323Z,15.25
2022-09-28T10:00:54.521Z,12.40
2022-09-28T10:15:56.466Z,17.35
2022-09-28T10:30:58.754Z,14.73
2022-09-28T10:46:04.992Z,16.57
2022-09-28T11:01:11.775Z,15.38
2022-09-28T11:16:40.081Z,14.38
2022-09-28T11:31:44.183Z,12.48
2022-09-28T11:46:45.909Z,9.73
2022-09-28T12:01:56.899Z,11.23
2022-09-28T12:17:08.458Z,13.73
2022-09-28T12:32:29.239Z,9.20
2022-09-28T12:47:54.715Z,9.23
2022-09-28T13:03:48.299Z,11.00
2022-09-28T13:19:01.622Z,9.70
2022-09-28T13:34:04.669Z,10.90
2022-09-28T13:49:16.784Z,11.47
2022-09-28T14:04:23.067Z,9.85
2022-09-28T14:19:31.517Z,11.32
2022-09-28T14:34:45.911Z,10.68
2022-09-28T14:49:48.404Z,11.50
2022-09-28T15:04:54.641Z,12.25
2022-09-28T15:20:25.446Z,12.52
2022-09-28T15:35:28.209Z,13.00
2022-09-28T15:50:31.858Z,12.80
2022-09-28T16:06:08.431Z,12.85
2022-09-28T16:21:42.841Z,12.70
2022-09-28T16:36:47.392Z,13.20
2022-09-28T16:51:49.349Z,13.90
2022-09-28T17:06:54.481Z,14.63
2022-09-28T17:21:56.270Z,15.95
2022-09-28T17:36:58.069Z,14.65
2022-09-28T17:52:00.055Z,15.50
2022-09-28T18:07:02.231Z,17.63
2022-09-28T18:22:04.014Z,16.13
2022-09-28T18:37:06.204Z,19.30
2022-09-28T18:52:08.086Z,22.95
2022-09-28T19:07:10.321Z,28.60
2022-09-28T19:22:12.697Z,31.85
2022-09-28T19:37:14.627Z,31.95
2022-09-28T19:52:17.343Z,33.80
2022-09-28T20:07:19.551Z,30.75
2022-09-28T20:22:21.422Z,30.48
2022-09-28T20:37:26.722Z,26.60
2022-09-28T20:52:28.578Z,28.83
2022-09-28T21:07:30.639Z,26.67
2022-09-28T21:22:32.450Z,22.95
2022-09-28T21:37:34.234Z,24.48
2022-09-28T21:52:36.402Z,23.52
2022-09-28T22:07:39.820Z,21.30
2022-09-28T22:22:41.618Z,22.58
2022-09-28T22:37:43.452Z,20.53
2022-09-28T22:52:45.246Z,20.57
2022-09-28T23:07:47.762Z,19.10
2022-09-28T23:22:50.045Z,18.57
2022-09-28T23:37:51.928Z,19.02
2022-09-28T23:52:53.889Z,18.67
